sensor_id;sensor_type;location;lat;lon;timestamp;P1;durP1;ratioP1;P2;durP2;ratioP2
25663;SDS011;13522;50.018;20.014;2023-06-26T00:01:47;11.15;;;7.98;;
25663;SDS011;13522;50.018;20.014;2023-06-26T00:05:00;8.38;;;6.60;;
25663;SDS011;13522;50.018;20.014;2023-06-26T00:08:12;13.13;;;7.00;;
25663;SDS011;13522;50.018;20.014;2023-06-26T00:11:25;16.85;;;7.63;;
25663;SDS011;13522;50.018;20.014;2023-06-26T00:14:37;14.55;;;7.05;;
25663;SDS011;13522;50.018;20.014;2023-06-26T00:17:50;12.30;;;7.20;;
25663;SDS011;13522;50.018;20.014;2023-06-26T00:21:02;11.00;;;6.93;;
25663;SDS011;13522;50.018;20.014;2023-06-26T00:24:16;15.68;;;7.05;;
25663;SDS011;13522;50.018;20.014;2023-06-26T00:27:28;12.50;;;6.95;;
25663;SDS011;13522;50.018;20.014;2023-06-26T00:30:41;10.75;;;6.98;;
25663;SDS011;13522;50.018;20.014;2023-06-26T00:33:53;12.93;;;7.08;;
25663;SDS011;13522;50.018;20.014;2023-06-26T00:37:06;13.48;;;7.83;;
25663;SDS011;13522;50.018;20.014;2023-06-26T00:40:18;12.05;;;7.08;;
25663;SDS011;13522;50.018;20.014;2023-06-26T00:43:31;12.15;;;7.28;;
25663;SDS011;13522;50.018;20.014;2023-06-26T00:46:45;14.13;;;6.85;;
25663;SDS011;13522;50.018;20.014;2023-06-26T00:49:58;15.93;;;6.93;;
25663;SDS011;13522;50.018;20.014;2023-06-26T00:53:10;14.68;;;7.23;;
25663;SDS011;13522;50.018;20.014;2023-06-26T00:56:23;11.28;;;7.20;;
25663;SDS011;13522;50.018;20.014;2023-06-26T00:59:37;13.75;;;7.60;;
25663;SDS011;13522;50.018;20.014;2023-06-26T01:02:49;12.93;;;7.95;;
25663;SDS011;13522;50.018;20.014;2023-06-26T01:06:05;11.43;;;7.63;;
25663;SDS011;13522;50.018;20.014;2023-06-26T01:09:20;10.58;;;6.95;;
25663;SDS011;13522;50.018;20.014;2023-06-26T01:12:33;10.95;;;7.58;;
25663;SDS011;13522;50.018;20.014;2023-06-26T01:15:47;12.45;;;7.45;;
25663;SDS011;13522;50.018;20.014;2023-06-26T01:19:00;11.65;;;7.48;;
25663;SDS011;13522;50.018;20.014;2023-06-26T01:22:16;11.33;;;7.10;;
25663;SDS011;13522;50.018;20.014;2023-06-26T01:25:37;12.35;;;7.18;;
25663;SDS011;13522;50.018;20.014;2023-06-26T01:28:57;13.95;;;7.48;;
25663;SDS011;13522;50.018;20.014;2023-06-26T01:32:11;12.33;;;7.15;;
25663;SDS011;13522;50.018;20.014;2023-06-26T01:35:24;12.80;;;7.45;;
25663;SDS011;13522;50.018;20.014;2023-06-26T01:38:37;11.73;;;7.15;;
25663;SDS011;13522;50.018;20.014;2023-06-26T01:41:49;12.75;;;7.58;;
25663;SDS011;13522;50.018;20.014;2023-06-26T01:45:03;10.95;;;7.48;;
25663;SDS011;13522;50.018;20.014;2023-06-26T01:48:23;15.10;;;7.75;;
25663;SDS011;13522;50.018;20.014;2023-06-26T01:51:41;13.18;;;7.78;;
25663;SDS011;13522;50.018;20.014;2023-06-26T01:54:58;11.03;;;8.03;;
25663;SDS011;13522;50.018;20.014;2023-06-26T01:58:19;15.63;;;7.93;;
25663;SDS011;13522;50.018;20.014;2023-06-26T02:01:34;11.28;;;7.83;;
25663;SDS011;13522;50.018;20.014;2023-06-26T02:04:47;14.23;;;9.78;;
25663;SDS011;13522;50.018;20.014;2023-06-26T02:08:00;14.45;;;9.00;;
25663;SDS011;13522;50.018;20.014;2023-06-26T02:11:13;12.58;;;8.15;;
25663;SDS011;13522;50.018;20.014;2023-06-26T02:14:26;12.58;;;8.40;;
25663;SDS011;13522;50.018;20.014;2023-06-26T02:17:38;13.13;;;8.18;;
25663;SDS011;13522;50.018;20.014;2023-06-26T02:20:52;15.05;;;8.43;;
25663;SDS011;13522;50.018;20.014;2023-06-26T02:24:07;10.75;;;7.85;;
25663;SDS011;13522;50.018;20.014;2023-06-26T02:27:19;11.48;;;7.88;;
25663;SDS011;13522;50.018;20.014;2023-06-26T02:30:31;12.55;;;7.73;;
25663;SDS011;13522;50.018;20.014;2023-06-26T02:33:44;13.35;;;7.95;;
25663;SDS011;13522;50.018;20.014;2023-06-26T02:36:56;22.63;;;14.58;;
25663;SDS011;13522;50.018;20.014;2023-06-26T02:40:11;21.83;;;14.08;;
25663;SDS011;13522;50.018;20.014;2023-06-26T02:43:25;16.05;;;8.40;;
25663;SDS011;13522;50.018;20.014;2023-06-26T02:46:38;11.90;;;8.18;;
25663;SDS011;13522;50.018;20.014;2023-06-26T02:49:51;10.83;;;7.58;;
25663;SDS011;13522;50.018;20.014;2023-06-26T02:53:05;12.93;;;7.55;;
25663;SDS011;13522;50.018;20.014;2023-06-26T02:56:19;8.83;;;7.13;;
25663;SDS011;13522;50.018;20.014;2023-06-26T02:59:34;17.63;;;8.03;;
25663;SDS011;13522;50.018;20.014;2023-06-26T03:02:48;12.80;;;7.53;;
25663;SDS011;13522;50.018;20.014;2023-06-26T03:06:01;13.25;;;8.20;;
25663;SDS011;13522;50.018;20.014;2023-06-26T03:09:14;11.30;;;7.95;;
25663;SDS011;13522;50.018;20.014;2023-06-26T03:12:26;10.85;;;7.88;;
25663;SDS011;13522;50.018;20.014;2023-06-26T03:15:38;10.70;;;8.30;;
25663;SDS011;13522;50.018;20.014;2023-06-26T03:18:52;13.55;;;8.03;;
25663;SDS011;13522;50.018;20.014;2023-06-26T03:22:05;15.63;;;7.90;;
25663;SDS011;13522;50.018;20.014;2023-06-26T03:25:17;13.25;;;7.68;;
25663;SDS011;13522;50.018;20.014;2023-06-26T03:28:32;11.30;;;7.85;;
25663;SDS011;13522;50.018;20.014;2023-06-26T03:31:45;14.10;;;7.75;;
25663;SDS011;13522;50.018;20.014;2023-06-26T03:34:58;12.80;;;7.85;;
25663;SDS011;13522;50.018;20.014;2023-06-26T03:38:11;10.63;;;7.68;;
25663;SDS011;13522;50.018;20.014;2023-06-26T03:41:24;11.05;;;7.40;;
25663;SDS011;13522;50.018;20.014;2023-06-26T03:44:36;11.53;;;8.70;;
25663;SDS011;13522;50.018;20.014;2023-06-26T03:47:48;13.48;;;8.15;;
25663;SDS011;13522;50.018;20.014;2023-06-26T03:51:01;12.20;;;8.05;;
25663;SDS011;13522;50.018;20.014;2023-06-26T03:54:14;10.53;;;8.10;;
25663;SDS011;13522;50.018;20.014;2023-06-26T03:57:27;14.70;;;9.48;;
25663;SDS011;13522;50.018;20.014;2023-06-26T04:00:39;11.08;;;8.18;;
25663;SDS011;13522;50.018;20.014;2023-06-26T04:03:52;10.78;;;7.63;;
25663;SDS011;13522;50.018;20.014;2023-06-26T04:07:04;14.80;;;10.38;;
25663;SDS011;13522;50.018;20.014;2023-06-26T04:10:17;14.08;;;8.13;;
25663;SDS011;13522;50.018;20.014;2023-06-26T04:13:29;13.03;;;8.18;;
25663;SDS011;13522;50.018;20.014;2023-06-26T04:16:41;13.08;;;8.65;;
25663;SDS011;13522;50.018;20.014;2023-06-26T04:19:54;11.98;;;7.73;;
25663;SDS011;13522;50.018;20.014;2023-06-26T04:23:11;12.90;;;7.80;;
25663;SDS011;13522;50.018;20.014;2023-06-26T04:26:23;13.23;;;8.70;;
25663;SDS011;13522;50.018;20.014;2023-06-26T04:29:35;15.85;;;7.90;;
25663;SDS011;13522;50.018;20.014;2023-06-26T04:32:48;13.55;;;8.65;;
25663;SDS011;13522;50.018;20.014;2023-06-26T04:36:03;15.03;;;7.68;;
25663;SDS011;13522;50.018;20.014;2023-06-26T04:39:16;17.00;;;9.03;;
25663;SDS011;13522;50.018;20.014;2023-06-26T04:42:28;12.28;;;8.50;;
25663;SDS011;13522;50.018;20.014;2023-06-26T04:45:41;17.88;;;11.98;;
25663;SDS011;13522;50.018;20.014;2023-06-26T04:48:53;15.13;;;8.40;;
25663;SDS011;13522;50.018;20.014;2023-06-26T04:52:08;15.20;;;9.43;;
25663;SDS011;13522;50.018;20.014;2023-06-26T04:55:20;15.98;;;10.85;;
25663;SDS011;13522;50.018;20.014;2023-06-26T04:58:35;13.70;;;8.88;;
25663;SDS011;13522;50.018;20.014;2023-06-26T05:01:48;12.65;;;9.13;;
25663;SDS011;13522;50.018;20.014;2023-06-26T05:05:01;17.50;;;8.65;;
25663;SDS011;13522;50.018;20.014;2023-06-26T05:08:15;14.65;;;9.73;;
25663;SDS011;13522;50.018;20.014;2023-06-26T05:11:30;18.28;;;9.58;;
25663;SDS011;13522;50.018;20.014;2023-06-26T05:14:43;15.05;;;8.50;;
25663;SDS011;13522;50.018;20.014;2023-06-26T05:17:55;15.93;;;8.85;;
25663;SDS011;13522;50.018;20.014;2023-06-26T05:21:08;14.83;;;9.98;;
25663;SDS011;13522;50.018;20.014;2023-06-26T05:24:22;27.30;;;16.20;;
25663;SDS011;13522;50.018;20.014;2023-06-26T05:27:36;20.50;;;12.80;;
25663;SDS011;13522;50.018;20.014;2023-06-26T05:30:50;17.83;;;12.33;;
25663;SDS011;13522;50.018;20.014;2023-06-26T05:34:04;15.90;;;10.50;;
25663;SDS011;13522;50.018;20.014;2023-06-26T05:37:18;12.28;;;8.80;;
25663;SDS011;13522;50.018;20.014;2023-06-26T05:40:33;15.00;;;8.48;;
25663;SDS011;13522;50.018;20.014;2023-06-26T05:43:47;19.00;;;9.45;;
25663;SDS011;13522;50.018;20.014;2023-06-26T05:47:00;13.45;;;9.28;;
25663;SDS011;13522;50.018;20.014;2023-06-26T05:50:14;18.30;;;8.93;;
25663;SDS011;13522;50.018;20.014;2023-06-26T05:53:29;11.05;;;8.23;;
25663;SDS011;13522;50.018;20.014;2023-06-26T05:56:43;16.03;;;8.40;;
25663;SDS011;13522;50.018;20.014;2023-06-26T05:59:57;15.80;;;8.50;;
25663;SDS011;13522;50.018;20.014;2023-06-26T06:03:15;26.03;;;11.43;;
25663;SDS011;13522;50.018;20.014;2023-06-26T06:06:27;13.63;;;9.03;;
25663;SDS011;13522;50.018;20.014;2023-06-26T06:09:40;13.20;;;8.08;;
25663;SDS011;13522;50.018;20.014;2023-06-26T06:12:52;16.53;;;10.10;;
25663;SDS011;13522;50.018;20.014;2023-06-26T06:16:05;14.68;;;9.10;;
25663;SDS011;13522;50.018;20.014;2023-06-26T06:19:17;14.15;;;8.03;;
25663;SDS011;13522;50.018;20.014;2023-06-26T06:22:30;18.15;;;9.55;;
25663;SDS011;13522;50.018;20.014;2023-06-26T06:25:43;16.58;;;7.88;;
25663;SDS011;13522;50.018;20.014;2023-06-26T06:28:55;12.93;;;7.20;;
25663;SDS011;13522;50.018;20.014;2023-06-26T06:32:08;18.40;;;8.20;;
25663;SDS011;13522;50.018;20.014;2023-06-26T06:35:20;12.83;;;7.68;;
25663;SDS011;13522;50.018;20.014;2023-06-26T06:38:34;12.95;;;8.03;;
25663;SDS011;13522;50.018;20.014;2023-06-26T06:41:46;13.58;;;7.60;;
25663;SDS011;13522;50.018;20.014;2023-06-26T06:44:58;11.68;;;7.93;;
25663;SDS011;13522;50.018;20.014;2023-06-26T06:48:12;12.18;;;7.63;;
25663;SDS011;13522;50.018;20.014;2023-06-26T06:51:24;13.25;;;7.35;;
25663;SDS011;13522;50.018;20.014;2023-06-26T06:58:06;14.25;;;7.08;;
25663;SDS011;13522;50.018;20.014;2023-06-26T07:01:21;14.40;;;7.35;;
25663;SDS011;13522;50.018;20.014;2023-06-26T07:04:33;10.98;;;6.60;;
25663;SDS011;13522;50.018;20.014;2023-06-26T07:07:46;9.15;;;7.13;;
25663;SDS011;13522;50.018;20.014;2023-06-26T07:10:59;9.58;;;6.73;;
25663;SDS011;13522;50.018;20.014;2023-06-26T07:14:12;11.50;;;6.88;;
25663;SDS011;13522;50.018;20.014;2023-06-26T07:17:24;13.23;;;6.98;;
25663;SDS011;13522;50.018;20.014;2023-06-26T07:20:37;15.13;;;7.08;;
25663;SDS011;13522;50.018;20.014;2023-06-26T07:23:50;10.60;;;7.40;;
25663;SDS011;13522;50.018;20.014;2023-06-26T07:27:03;21.45;;;13.65;;
25663;SDS011;13522;50.018;20.014;2023-06-26T07:30:16;11.50;;;6.60;;
25663;SDS011;13522;50.018;20.014;2023-06-26T07:33:28;10.58;;;6.08;;
25663;SDS011;13522;50.018;20.014;2023-06-26T07:36:40;7.53;;;5.50;;
25663;SDS011;13522;50.018;20.014;2023-06-26T07:39:53;10.70;;;5.95;;
25663;SDS011;13522;50.018;20.014;2023-06-26T07:43:05;10.40;;;6.05;;
25663;SDS011;13522;50.018;20.014;2023-06-26T07:46:18;10.35;;;6.38;;
25663;SDS011;13522;50.018;20.014;2023-06-26T07:49:30;10.60;;;5.45;;
25663;SDS011;13522;50.018;20.014;2023-06-26T07:52:43;9.50;;;6.25;;
25663;SDS011;13522;50.018;20.014;2023-06-26T07:55:57;10.00;;;6.18;;
25663;SDS011;13522;50.018;20.014;2023-06-26T07:59:09;18.73;;;12.80;;
25663;SDS011;13522;50.018;20.014;2023-06-26T08:02:22;9.00;;;6.73;;
25663;SDS011;13522;50.018;20.014;2023-06-26T08:05:36;5.65;;;4.55;;
25663;SDS011;13522;50.018;20.014;2023-06-26T08:08:49;7.18;;;4.80;;
25663;SDS011;13522;50.018;20.014;2023-06-26T08:12:02;7.58;;;4.13;;
25663;SDS011;13522;50.018;20.014;2023-06-26T08:15:16;7.30;;;5.10;;
25663;SDS011;13522;50.018;20.014;2023-06-26T08:18:29;6.05;;;4.10;;
25663;SDS011;13522;50.018;20.014;2023-06-26T08:21:41;7.85;;;3.85;;
25663;SDS011;13522;50.018;20.014;2023-06-26T08:24:55;9.78;;;4.80;;
25663;SDS011;13522;50.018;20.014;2023-06-26T08:28:07;12.73;;;8.30;;
25663;SDS011;13522;50.018;20.014;2023-06-26T08:31:20;9.55;;;6.63;;
25663;SDS011;13522;50.018;20.014;2023-06-26T08:34:33;8.95;;;4.85;;
25663;SDS011;13522;50.018;20.014;2023-06-26T08:37:45;7.53;;;5.20;;
25663;SDS011;13522;50.018;20.014;2023-06-26T08:40:59;11.93;;;7.93;;
25663;SDS011;13522;50.018;20.014;2023-06-26T08:44:13;6.88;;;4.28;;
25663;SDS011;13522;50.018;20.014;2023-06-26T08:47:27;7.83;;;3.00;;
25663;SDS011;13522;50.018;20.014;2023-06-26T08:50:40;7.08;;;3.45;;
25663;SDS011;13522;50.018;20.014;2023-06-26T08:53:56;7.78;;;4.58;;
25663;SDS011;13522;50.018;20.014;2023-06-26T08:57:09;6.58;;;4.10;;
25663;SDS011;13522;50.018;20.014;2023-06-26T09:00:24;11.53;;;8.50;;
25663;SDS011;13522;50.018;20.014;2023-06-26T09:03:37;16.08;;;12.45;;
25663;SDS011;13522;50.018;20.014;2023-06-26T09:06:50;6.25;;;3.80;;
25663;SDS011;13522;50.018;20.014;2023-06-26T09:10:02;6.08;;;4.93;;
25663;SDS011;13522;50.018;20.014;2023-06-26T09:13:17;7.15;;;3.95;;
25663;SDS011;13522;50.018;20.014;2023-06-26T09:16:32;8.80;;;4.00;;
25663;SDS011;13522;50.018;20.014;2023-06-26T09:19:51;9.53;;;6.28;;
25663;SDS011;13522;50.018;20.014;2023-06-26T09:23:03;4.33;;;3.65;;
25663;SDS011;13522;50.018;20.014;2023-06-26T09:26:18;8.18;;;5.30;;
25663;SDS011;13522;50.018;20.014;2023-06-26T09:29:31;11.43;;;9.18;;
25663;SDS011;13522;50.018;20.014;2023-06-26T09:32:45;7.90;;;5.53;;
25663;SDS011;13522;50.018;20.014;2023-06-26T09:35:59;5.68;;;4.28;;
25663;SDS011;13522;50.018;20.014;2023-06-26T09:39:12;6.83;;;4.80;;
25663;SDS011;13522;50.018;20.014;2023-06-26T09:42:24;5.70;;;4.58;;
25663;SDS011;13522;50.018;20.014;2023-06-26T09:45:39;10.85;;;5.70;;
25663;SDS011;13522;50.018;20.014;2023-06-26T09:48:54;6.35;;;5.05;;
25663;SDS011;13522;50.018;20.014;2023-06-26T09:52:15;16.13;;;11.68;;
25663;SDS011;13522;50.018;20.014;2023-06-26T09:55:28;9.48;;;6.00;;
25663;SDS011;13522;50.018;20.014;2023-06-26T10:01:58;10.78;;;6.40;;
25663;SDS011;13522;50.018;20.014;2023-06-26T10:05:10;4.15;;;3.70;;
25663;SDS011;13522;50.018;20.014;2023-06-26T10:08:23;10.10;;;5.03;;
25663;SDS011;13522;50.018;20.014;2023-06-26T10:11:37;9.70;;;6.58;;
25663;SDS011;13522;50.018;20.014;2023-06-26T10:14:53;12.30;;;8.78;;
25663;SDS011;13522;50.018;20.014;2023-06-26T10:18:09;9.67;;;5.40;;
25663;SDS011;13522;50.018;20.014;2023-06-26T10:21:24;6.65;;;4.70;;
25663;SDS011;13522;50.018;20.014;2023-06-26T10:24:38;7.55;;;4.15;;
25663;SDS011;13522;50.018;20.014;2023-06-26T10:27:54;8.50;;;4.20;;
25663;SDS011;13522;50.018;20.014;2023-06-26T10:31:09;6.13;;;3.90;;
25663;SDS011;13522;50.018;20.014;2023-06-26T10:34:24;5.18;;;4.23;;
25663;SDS011;13522;50.018;20.014;2023-06-26T10:37:44;7.98;;;5.33;;
25663;SDS011;13522;50.018;20.014;2023-06-26T10:40:57;7.35;;;4.03;;
25663;SDS011;13522;50.018;20.014;2023-06-26T10:44:20;6.03;;;4.90;;
25663;SDS011;13522;50.018;20.014;2023-06-26T10:47:33;12.65;;;8.05;;
25663;SDS011;13522;50.018;20.014;2023-06-26T10:50:48;7.78;;;5.03;;
25663;SDS011;13522;50.018;20.014;2023-06-26T10:54:01;8.43;;;5.83;;
25663;SDS011;13522;50.018;20.014;2023-06-26T10:57:13;7.35;;;3.90;;
25663;SDS011;13522;50.018;20.014;2023-06-26T11:00:37;7.78;;;4.85;;
25663;SDS011;13522;50.018;20.014;2023-06-26T11:04:03;6.03;;;4.48;;
25663;SDS011;13522;50.018;20.014;2023-06-26T11:07:20;5.63;;;4.43;;
25663;SDS011;13522;50.018;20.014;2023-06-26T11:14:10;5.53;;;4.40;;
25663;SDS011;13522;50.018;20.014;2023-06-26T11:17:24;7.30;;;4.93;;
25663;SDS011;13522;50.018;20.014;2023-06-26T11:20:38;9.75;;;4.18;;
25663;SDS011;13522;50.018;20.014;2023-06-26T11:23:52;10.73;;;8.15;;
25663;SDS011;13522;50.018;20.014;2023-06-26T11:27:07;7.08;;;5.23;;
25663;SDS011;13522;50.018;20.014;2023-06-26T11:30:24;5.83;;;4.30;;
25663;SDS011;13522;50.018;20.014;2023-06-26T11:33:37;10.20;;;4.18;;
25663;SDS011;13522;50.018;20.014;2023-06-26T11:36:49;8.78;;;4.00;;
25663;SDS011;13522;50.018;20.014;2023-06-26T11:43:31;8.18;;;4.15;;
25663;SDS011;13522;50.018;20.014;2023-06-26T11:46:45;5.03;;;4.05;;
25663;SDS011;13522;50.018;20.014;2023-06-26T11:50:03;5.35;;;3.60;;
25663;SDS011;13522;50.018;20.014;2023-06-26T11:53:19;7.13;;;3.28;;
25663;SDS011;13522;50.018;20.014;2023-06-26T11:56:32;5.60;;;4.33;;
25663;SDS011;13522;50.018;20.014;2023-06-26T11:59:45;9.03;;;4.13;;
25663;SDS011;13522;50.018;20.014;2023-06-26T12:03:00;6.90;;;4.30;;
25663;SDS011;13522;50.018;20.014;2023-06-26T12:06:13;7.38;;;4.25;;
25663;SDS011;13522;50.018;20.014;2023-06-26T12:09:26;5.93;;;3.78;;
25663;SDS011;13522;50.018;20.014;2023-06-26T12:12:39;6.73;;;4.48;;
25663;SDS011;13522;50.018;20.014;2023-06-26T12:15:52;7.23;;;4.10;;
25663;SDS011;13522;50.018;20.014;2023-06-26T12:19:05;8.05;;;4.13;;
25663;SDS011;13522;50.018;20.014;2023-06-26T12:22:18;6.95;;;4.40;;
25663;SDS011;13522;50.018;20.014;2023-06-26T12:25:32;5.55;;;3.80;;
25663;SDS011;13522;50.018;20.014;2023-06-26T12:28:45;5.73;;;4.33;;
25663;SDS011;13522;50.018;20.014;2023-06-26T12:31:58;6.85;;;3.83;;
25663;SDS011;13522;50.018;20.014;2023-06-26T12:35:11;5.93;;;4.33;;
25663;SDS011;13522;50.018;20.014;2023-06-26T12:38:24;7.08;;;4.98;;
25663;SDS011;13522;50.018;20.014;2023-06-26T12:41:48;8.98;;;5.98;;
25663;SDS011;13522;50.018;20.014;2023-06-26T12:45:11;6.28;;;5.00;;
25663;SDS011;13522;50.018;20.014;2023-06-26T12:48:37;6.50;;;4.43;;
25663;SDS011;13522;50.018;20.014;2023-06-26T12:51:51;5.70;;;3.95;;
25663;SDS011;13522;50.018;20.014;2023-06-26T12:55:05;7.90;;;4.28;;
25663;SDS011;13522;50.018;20.014;2023-06-26T12:58:19;10.83;;;5.25;;
25663;SDS011;13522;50.018;20.014;2023-06-26T13:01:31;8.53;;;4.85;;
25663;SDS011;13522;50.018;20.014;2023-06-26T13:04:44;7.73;;;4.35;;
25663;SDS011;13522;50.018;20.014;2023-06-26T13:07:57;8.78;;;4.80;;
25663;SDS011;13522;50.018;20.014;2023-06-26T13:11:09;8.63;;;4.60;;
25663;SDS011;13522;50.018;20.014;2023-06-26T13:14:21;5.73;;;4.23;;
25663;SDS011;13522;50.018;20.014;2023-06-26T13:17:34;9.50;;;4.35;;
25663;SDS011;13522;50.018;20.014;2023-06-26T13:20:47;10.25;;;4.73;;
25663;SDS011;13522;50.018;20.014;2023-06-26T13:23:59;17.88;;;14.08;;
25663;SDS011;13522;50.018;20.014;2023-06-26T13:27:13;14.20;;;10.58;;
25663;SDS011;13522;50.018;20.014;2023-06-26T13:30:26;11.33;;;6.90;;
25663;SDS011;13522;50.018;20.014;2023-06-26T13:33:39;18.98;;;13.83;;
25663;SDS011;13522;50.018;20.014;2023-06-26T13:36:53;9.55;;;6.58;;
25663;SDS011;13522;50.018;20.014;2023-06-26T13:40:08;8.93;;;5.88;;
25663;SDS011;13522;50.018;20.014;2023-06-26T13:43:22;14.78;;;8.45;;
25663;SDS011;13522;50.018;20.014;2023-06-26T13:46:36;16.20;;;9.73;;
25663;SDS011;13522;50.018;20.014;2023-06-26T13:49:49;12.30;;;4.90;;
25663;SDS011;13522;50.018;20.014;2023-06-26T13:53:01;11.40;;;5.88;;
25663;SDS011;13522;50.018;20.014;2023-06-26T13:56:13;10.08;;;6.08;;
25663;SDS011;13522;50.018;20.014;2023-06-26T13:59:27;8.90;;;4.75;;
25663;SDS011;13522;50.018;20.014;2023-06-26T14:02:39;22.55;;;16.60;;
25663;SDS011;13522;50.018;20.014;2023-06-26T14:05:52;18.15;;;13.05;;
25663;SDS011;13522;50.018;20.014;2023-06-26T14:09:05;12.58;;;8.48;;
25663;SDS011;13522;50.018;20.014;2023-06-26T14:12:17;7.00;;;4.90;;
25663;SDS011;13522;50.018;20.014;2023-06-26T14:15:30;12.48;;;5.23;;
25663;SDS011;13522;50.018;20.014;2023-06-26T14:18:44;10.45;;;6.23;;
25663;SDS011;13522;50.018;20.014;2023-06-26T14:21:57;13.53;;;6.75;;
25663;SDS011;13522;50.018;20.014;2023-06-26T14:25:10;8.63;;;5.43;;
25663;SDS011;13522;50.018;20.014;2023-06-26T14:28:23;10.65;;;6.30;;
25663;SDS011;13522;50.018;20.014;2023-06-26T14:31:35;7.93;;;5.40;;
25663;SDS011;13522;50.018;20.014;2023-06-26T14:34:48;13.28;;;6.08;;
25663;SDS011;13522;50.018;20.014;2023-06-26T14:38:00;14.83;;;9.05;;
25663;SDS011;13522;50.018;20.014;2023-06-26T14:41:12;10.40;;;5.20;;
25663;SDS011;13522;50.018;20.014;2023-06-26T14:44:26;8.68;;;5.30;;
25663;SDS011;13522;50.018;20.014;2023-06-26T14:47:39;6.63;;;5.03;;
25663;SDS011;13522;50.018;20.014;2023-06-26T14:50:51;7.78;;;5.20;;
25663;SDS011;13522;50.018;20.014;2023-06-26T14:54:05;6.45;;;5.15;;
25663;SDS011;13522;50.018;20.014;2023-06-26T14:57:17;7.75;;;4.95;;
25663;SDS011;13522;50.018;20.014;2023-06-26T15:00:30;7.53;;;5.50;;
25663;SDS011;13522;50.018;20.014;2023-06-26T15:03:43;8.15;;;5.45;;
25663;SDS011;13522;50.018;20.014;2023-06-26T15:06:56;11.18;;;6.75;;
25663;SDS011;13522;50.018;20.014;2023-06-26T15:10:09;9.75;;;4.88;;
25663;SDS011;13522;50.018;20.014;2023-06-26T15:13:22;6.78;;;5.10;;
25663;SDS011;13522;50.018;20.014;2023-06-26T15:16:35;7.88;;;4.83;;
25663;SDS011;13522;50.018;20.014;2023-06-26T15:19:47;9.48;;;5.08;;
25663;SDS011;13522;50.018;20.014;2023-06-26T15:22:59;10.00;;;5.30;;
25663;SDS011;13522;50.018;20.014;2023-06-26T15:26:11;10.85;;;5.30;;
25663;SDS011;13522;50.018;20.014;2023-06-26T15:29:24;11.63;;;6.20;;
25663;SDS011;13522;50.018;20.014;2023-06-26T15:32:37;8.80;;;4.88;;
25663;SDS011;13522;50.018;20.014;2023-06-26T15:35:49;8.08;;;5.20;;
25663;SDS011;13522;50.018;20.014;2023-06-26T15:39:01;9.45;;;5.10;;
25663;SDS011;13522;50.018;20.014;2023-06-26T15:42:14;11.33;;;6.70;;
25663;SDS011;13522;50.018;20.014;2023-06-26T15:45:27;8.63;;;5.48;;
25663;SDS011;13522;50.018;20.014;2023-06-26T15:48:40;8.43;;;6.38;;
25663;SDS011;13522;50.018;20.014;2023-06-26T15:51:53;12.38;;;7.13;;
25663;SDS011;13522;50.018;20.014;2023-06-26T15:55:06;9.88;;;5.15;;
25663;SDS011;13522;50.018;20.014;2023-06-26T15:58:19;12.28;;;6.53;;
25663;SDS011;13522;50.018;20.014;2023-06-26T16:01:32;8.43;;;6.00;;
25663;SDS011;13522;50.018;20.014;2023-06-26T16:04:45;13.70;;;6.83;;
25663;SDS011;13522;50.018;20.014;2023-06-26T16:07:58;9.13;;;5.75;;
25663;SDS011;13522;50.018;20.014;2023-06-26T16:11:10;10.00;;;5.75;;
25663;SDS011;13522;50.018;20.014;2023-06-26T16:14:24;10.70;;;5.98;;
25663;SDS011;13522;50.018;20.014;2023-06-26T16:17:36;11.25;;;6.90;;
25663;SDS011;13522;50.018;20.014;2023-06-26T16:20:49;10.23;;;6.55;;
25663;SDS011;13522;50.018;20.014;2023-06-26T16:24:03;13.33;;;5.55;;
25663;SDS011;13522;50.018;20.014;2023-06-26T16:27:17;7.70;;;4.90;;
25663;SDS011;13522;50.018;20.014;2023-06-26T16:30:30;10.70;;;5.73;;
25663;SDS011;13522;50.018;20.014;2023-06-26T16:33:43;9.23;;;5.90;;
25663;SDS011;13522;50.018;20.014;2023-06-26T16:36:56;6.78;;;4.80;;
25663;SDS011;13522;50.018;20.014;2023-06-26T16:40:12;8.28;;;5.13;;
25663;SDS011;13522;50.018;20.014;2023-06-26T16:43:24;9.40;;;5.60;;
25663;SDS011;13522;50.018;20.014;2023-06-26T16:46:37;8.88;;;5.58;;
25663;SDS011;13522;50.018;20.014;2023-06-26T16:49:50;11.25;;;7.48;;
25663;SDS011;13522;50.018;20.014;2023-06-26T16:53:03;9.28;;;6.30;;
25663;SDS011;13522;50.018;20.014;2023-06-26T16:56:15;9.33;;;5.55;;
25663;SDS011;13522;50.018;20.014;2023-06-26T16:59:28;10.63;;;4.95;;
25663;SDS011;13522;50.018;20.014;2023-06-26T17:02:40;7.63;;;5.30;;
25663;SDS011;13522;50.018;20.014;2023-06-26T17:05:55;9.20;;;5.50;;
25663;SDS011;13522;50.018;20.014;2023-06-26T17:09:10;9.90;;;5.05;;
25663;SDS011;13522;50.018;20.014;2023-06-26T17:12:22;9.05;;;4.70;;
25663;SDS011;13522;50.018;20.014;2023-06-26T17:15:35;8.48;;;5.00;;
25663;SDS011;13522;50.018;20.014;2023-06-26T17:18:47;7.73;;;4.90;;
25663;SDS011;13522;50.018;20.014;2023-06-26T17:21:59;9.70;;;4.90;;
25663;SDS011;13522;50.018;20.014;2023-06-26T17:25:12;8.98;;;5.48;;
25663;SDS011;13522;50.018;20.014;2023-06-26T17:28:24;9.45;;;5.00;;
25663;SDS011;13522;50.018;20.014;2023-06-26T17:31:37;6.28;;;5.10;;
25663;SDS011;13522;50.018;20.014;2023-06-26T17:34:49;5.73;;;4.33;;
25663;SDS011;13522;50.018;20.014;2023-06-26T17:38:03;8.68;;;4.53;;
25663;SDS011;13522;50.018;20.014;2023-06-26T17:41:16;13.80;;;5.25;;
25663;SDS011;13522;50.018;20.014;2023-06-26T17:44:28;8.80;;;5.10;;
25663;SDS011;13522;50.018;20.014;2023-06-26T17:47:40;10.03;;;6.38;;
25663;SDS011;13522;50.018;20.014;2023-06-26T17:50:53;12.95;;;9.98;;
25663;SDS011;13522;50.018;20.014;2023-06-26T17:54:07;12.13;;;6.40;;
25663;SDS011;13522;50.018;20.014;2023-06-26T17:57:19;8.15;;;5.00;;
25663;SDS011;13522;50.018;20.014;2023-06-26T18:00:32;9.65;;;5.58;;
25663;SDS011;13522;50.018;20.014;2023-06-26T18:03:45;9.48;;;4.90;;
25663;SDS011;13522;50.018;20.014;2023-06-26T18:06:57;7.45;;;5.70;;
25663;SDS011;13522;50.018;20.014;2023-06-26T18:10:10;10.00;;;5.25;;
25663;SDS011;13522;50.018;20.014;2023-06-26T18:13:24;14.70;;;5.30;;
25663;SDS011;13522;50.018;20.014;2023-06-26T18:16:37;8.20;;;4.73;;
25663;SDS011;13522;50.018;20.014;2023-06-26T18:19:49;11.58;;;5.10;;
25663;SDS011;13522;50.018;20.014;2023-06-26T18:23:02;10.30;;;5.50;;
25663;SDS011;13522;50.018;20.014;2023-06-26T18:26:14;6.98;;;4.60;;
25663;SDS011;13522;50.018;20.014;2023-06-26T18:29:27;9.45;;;5.50;;
25663;SDS011;13522;50.018;20.014;2023-06-26T18:32:41;7.53;;;5.10;;
25663;SDS011;13522;50.018;20.014;2023-06-26T18:35:54;9.53;;;5.50;;
25663;SDS011;13522;50.018;20.014;2023-06-26T18:39:07;14.55;;;6.05;;
25663;SDS011;13522;50.018;20.014;2023-06-26T18:42:20;9.18;;;5.80;;
25663;SDS011;13522;50.018;20.014;2023-06-26T18:45:32;8.05;;;5.30;;
25663;SDS011;13522;50.018;20.014;2023-06-26T18:48:46;11.93;;;6.10;;
25663;SDS011;13522;50.018;20.014;2023-06-26T18:52:09;8.00;;;5.80;;
25663;SDS011;13522;50.018;20.014;2023-06-26T18:55:22;9.08;;;5.88;;
25663;SDS011;13522;50.018;20.014;2023-06-26T18:58:37;11.98;;;7.33;;
25663;SDS011;13522;50.018;20.014;2023-06-26T19:01:49;9.18;;;5.98;;
25663;SDS011;13522;50.018;20.014;2023-06-26T19:05:02;15.25;;;10.45;;
25663;SDS011;13522;50.018;20.014;2023-06-26T19:08:18;13.48;;;9.08;;
25663;SDS011;13522;50.018;20.014;2023-06-26T19:11:31;8.38;;;6.15;;